createdAt,value
2022-09-25T00:01:24.694Z,6.97
2022-09-25T00:03:52.656Z,8.20
2022-09-25T00:06:23.979Z,7.95
2022-09-25T00:08:53.841Z,7.07
2022-09-25T00:11:23.896Z,7.55
2022-09-25T00:13:52.582Z,6.60
2022-09-25T00:16:23.733Z,8.00
2022-09-25T00:19:09.411Z,10.02
2022-09-25T00:21:39.130Z,7.35
2022-09-25T00:24:09.478Z,7.97
2022-09-25T00:26:41.467Z,8.13
2022-09-25T00:29:14.743Z,7.90
2022-09-25T00:31:42.618Z,8.10
2022-09-25T00:34:12.180Z,9.07
2022-09-25T00:36:41.603Z,7.00
2022-09-25T00:39:09.503Z,7.00
2022-09-25T00:41:37.443Z,7.15
2022-09-25T00:44:05.676Z,6.30
2022-09-25T00:46:37.689Z,6.20
2022-09-25T00:49:11.106Z,8.00
2022-09-25T00:51:45.599Z,8.43
2022-09-25T00:54:17.747Z,6.82
2022-09-25T00:56:49.831Z,9.52
2022-09-25T00:59:20.539Z,6.82
2022-09-25T01:01:48.739Z,7.00
2022-09-25T01:04:18.246Z,7.28
2022-09-25T01:06:47.419Z,6.53
2022-09-25T01:09:15.497Z,7.28
2022-09-25T01:11:45.141Z,6.47
2022-09-25T01:14:15.046Z,8.82
2022-09-25T01:16:47.963Z,7.28
2022-09-25T01:19:27.222Z,7.60
2022-09-25T01:22:06.927Z,7.20
2022-09-25T01:25:06.099Z,7.75
2022-09-25T01:27:47.071Z,8.43
2022-09-25T01:30:19.132Z,8.20
2022-09-25T01:32:57.953Z,8.48
2022-09-25T01:35:35.494Z,8.52
2022-09-25T01:38:10.986Z,8.15
2022-09-25T01:40:43.933Z,8.00
2022-09-25T01:43:16.458Z,8.40
2022-09-25T01:45:52.035Z,7.93
2022-09-25T01:48:25.055Z,7.20
2022-09-25T01:50:58.965Z,8.52
2022-09-25T01:53:31.701Z,8.15
2022-09-25T01:56:05.435Z,8.00
2022-09-25T01:58:37.631Z,8.75
2022-09-25T02:01:11.529Z,8.95
2022-09-25T02:03:44.097Z,8.20
2022-09-25T02:06:16.123Z,7.90
2022-09-25T02:08:49.404Z,8.27
2022-09-25T02:11:17.886Z,10.40
2022-09-25T02:13:50.090Z,7.38
2022-09-25T02:16:23.653Z,7.13
2022-09-25T02:19:09.046Z,6.90
2022-09-25T02:21:46.472Z,7.63
2022-09-25T02:24:20.935Z,6.43
2022-09-25T02:26:49.511Z,6.40
2022-09-25T02:29:18.200Z,5.90
2022-09-25T02:31:50.922Z,6.45
2022-09-25T02:34:19.114Z,7.40
2022-09-25T02:36:47.283Z,6.03
2022-09-25T02:39:18.785Z,6.50
2022-09-25T02:42:02.092Z,7.88
2022-09-25T02:44:42.252Z,7.20
2022-09-25T02:47:24.195Z,7.25
2022-09-25T02:49:58.639Z,6.82
2022-09-25T02:52:34.299Z,7.07
2022-09-25T02:55:07.920Z,6.50
2022-09-25T02:57:45.074Z,5.90
2022-09-25T03:00:14.294Z,5.95
2022-09-25T03:02:49.662Z,5.35
2022-09-25T03:05:21.376Z,4.70
2022-09-25T03:08:07.214Z,6.68
2022-09-25T03:10:37.795Z,3.47
2022-09-25T03:13:17.195Z,3.38
2022-09-25T03:15:47.712Z,3.10
2022-09-25T03:18:17.074Z,4.43
2022-09-25T03:20:45.122Z,4.90
2022-09-25T03:23:13.158Z,4.28
2022-09-25T03:25:42.775Z,3.97
2022-09-25T03:28:14.095Z,3.38
2022-09-25T03:30:42.326Z,2.90
2022-09-25T03:33:10.638Z,3.28
2022-09-25T03:35:40.194Z,4.75
2022-09-25T03:38:10.347Z,4.03
2022-09-25T03:40:38.208Z,3.10
2022-09-25T03:45:33.134Z,3.25
2022-09-25T03:48:00.837Z,4.25
2022-09-25T03:50:28.684Z,3.58
2022-09-25T03:52:58.095Z,3.03
2022-09-25T03:55:26.441Z,3.72
2022-09-25T03:57:54.446Z,3.22
2022-09-25T04:00:22.828Z,5.30
2022-09-25T04:02:51.017Z,4.10
2022-09-25T04:05:21.361Z,2.55
2022-09-25T04:07:49.205Z,2.80
2022-09-25T04:10:18.427Z,2.75
2022-09-25T04:12:46.271Z,4.30
2022-09-25T04:15:14.834Z,3.83
2022-09-25T04:17:42.626Z,2.50
2022-09-25T04:20:10.916Z,2.60
2022-09-25T04:22:38.631Z,3.42
2022-09-25T04:25:07.539Z,2.50
2022-09-25T04:27:37.700Z,5.40
2022-09-25T04:30:07.029Z,2.80
2022-09-25T04:32:52.215Z,3.10
2022-09-25T04:35:20.527Z,2.45
2022-09-25T04:37:48.298Z,3.00
2022-09-25T04:40:16.237Z,3.30
2022-09-25T04:42:45.937Z,3.50
2022-09-25T04:45:13.826Z,3.33
2022-09-25T04:47:41.601Z,4.38
2022-09-25T04:50:10.150Z,4.15
2022-09-25T04:52:38.557Z,5.25
2022-09-25T04:55:07.257Z,5.43
2022-09-25T04:57:57.318Z,5.40
2022-09-25T05:00:26.206Z,3.55
2022-09-25T05:02:54.319Z,3.33
2022-09-25T05:05:23.959Z,5.15
2022-09-25T05:07:54.097Z,3.53
2022-09-25T05:10:21.956Z,5.75
2022-09-25T05:12:50.298Z,6.45
2022-09-25T05:15:18.317Z,5.60
2022-09-25T05:17:47.707Z,3.97
2022-09-25T05:20:16.228Z,4.13
2022-09-25T05:22:44.641Z,4.85
2022-09-25T05:25:12.875Z,7.35
2022-09-25T05:27:40.962Z,6.38
2022-09-25T05:30:11.815Z,4.57
2022-09-25T05:32:40.654Z,4.53
2022-09-25T05:35:11.666Z,4.82
2022-09-25T05:37:40.139Z,6.03
2022-09-25T05:40:11.086Z,4.55
2022-09-25T05:42:39.615Z,5.22
2022-09-25T05:45:08.297Z,7.65
2022-09-25T05:47:36.198Z,4.40
2022-09-25T05:50:04.591Z,6.47
2022-09-25T05:52:33.942Z,5.82
2022-09-25T05:55:03.363Z,6.43
2022-09-25T05:57:32.476Z,5.13
2022-09-25T06:00:00.551Z,6.75
2022-09-25T06:02:29.011Z,6.07
2022-09-25T06:04:56.841Z,6.05
2022-09-25T06:07:24.628Z,6.78
2022-09-25T06:09:53.743Z,5.90
2022-09-25T06:12:23.339Z,5.97
2022-09-25T06:14:51.658Z,5.35
2022-09-25T06:17:19.995Z,5.95
2022-09-25T06:19:49.146Z,5.90
2022-09-25T06:22:16.917Z,6.15
2022-09-25T06:24:51.830Z,6.03
2022-09-25T06:27:21.489Z,6.40
2022-09-25T06:29:49.266Z,7.85
2022-09-25T06:32:17.242Z,6.13
2022-09-25T06:34:45.374Z,6.15
2022-09-25T06:37:13.110Z,6.45
2022-09-25T06:39:40.840Z,6.43
2022-09-25T06:42:09.018Z,7.00
2022-09-25T06:44:39.168Z,7.53
2022-09-25T06:47:07.233Z,6.30
2022-09-25T06:49:35.085Z,8.55
2022-09-25T06:52:03.046Z,7.90
2022-09-25T06:54:31.685Z,8.00
2022-09-25T06:56:59.455Z,7.10
2022-09-25T06:59:27.239Z,8.43
2022-09-25T07:02:16.715Z,8.02
2022-09-25T07:04:43.573Z,7.13
2022-09-25T07:07:11.431Z,7.47
2022-09-25T07:09:39.196Z,7.25
2022-09-25T07:12:07.181Z,6.85
2022-09-25T07:14:35.321Z,7.65
2022-09-25T07:17:04.443Z,7.55
2022-09-25T07:19:32.249Z,7.70
2022-09-25T07:22:00.380Z,8.13
2022-09-25T07:24:30.186Z,8.32
2022-09-25T07:26:58.167Z,7.18
2022-09-25T07:29:26.038Z,7.47
2022-09-25T07:31:54.785Z,7.32
2022-09-25T07:34:24.154Z,7.53
2022-09-25T07:36:52.874Z,7.40
2022-09-25T07:39:20.837Z,8.05
2022-09-25T07:41:48.968Z,6.90
2022-09-25T07:44:28.510Z,7.30
2022-09-25T07:46:57.485Z,7.82
2022-09-25T07:49:26.634Z,8.68
2022-09-25T07:51:54.530Z,6.50
2022-09-25T07:54:22.451Z,7.43
2022-09-25T07:56:50.239Z,7.40
2022-09-25T07:59:18.013Z,9.98
2022-09-25T08:01:52.665Z,7.07
2022-09-25T08:04:21.637Z,7.28
2022-09-25T08:06:50.814Z,7.15
2022-09-25T08:09:18.631Z,7.97
2022-09-25T08:11:46.834Z,7.75
2022-09-25T08:14:15.746Z,9.25
2022-09-25T08:16:43.951Z,9.27
2022-09-25T08:19:12.667Z,9.85
2022-09-25T08:21:40.565Z,10.07
2022-09-25T08:24:10.807Z,12.30
2022-09-25T08:26:38.715Z,10.65
2022-09-25T08:29:08.157Z,12.60
2022-09-25T08:31:36.073Z,14.50
2022-09-25T08:34:21.428Z,14.52
2022-09-25T08:36:51.878Z,14.30
2022-09-25T08:39:21.166Z,15.60
2022-09-25T08:41:52.500Z,15.98
2022-09-25T08:44:27.189Z,16.50
2022-09-25T08:47:19.500Z,15.57
2022-09-25T08:49:58.701Z,14.88
2022-09-25T08:52:26.643Z,17.30
2022-09-25T08:54:55.833Z,16.92
2022-09-25T08:57:31.362Z,17.60
2022-09-25T09:00:03.197Z,18.35
2022-09-25T09:02:39.433Z,17.65
2022-09-25T09:05:17.358Z,18.20
2022-09-25T09:07:49.983Z,17.83
2022-09-25T09:10:31.836Z,18.17
2022-09-25T09:13:02.863Z,19.85
2022-09-25T09:15:39.181Z,18.15
2022-09-25T09:18:20.558Z,18.70
2022-09-25T09:20:53.489Z,17.15
2022-09-25T09:23:23.886Z,18.88
2022-09-25T09:26:02.658Z,18.42
2022-09-25T09:28:55.182Z,21.65
2022-09-25T09:31:31.383Z,21.70
2022-09-25T09:34:10.674Z,22.05
2022-09-25T09:36:47.491Z,23.65
2022-09-25T09:39:22.762Z,25.25
2022-09-25T09:42:01.780Z,22.95
2022-09-25T09:44:40.945Z,23.05
2022-09-25T09:47:33.583Z,24.45
2022-09-25T09:50:14.722Z,24.05
2022-09-25T09:52:45.470Z,24.10
2022-09-25T09:55:23.829Z,26.92
2022-09-25T09:57:55.597Z,24.83
2022-09-25T10:00:25.730Z,25.05
2022-09-25T10:02:59.281Z,26.25
2022-09-25T10:05:31.347Z,24.30
2022-09-25T10:07:59.335Z,23.95
2022-09-25T10:10:37.265Z,25.08
2022-09-25T10:13:12.279Z,25.98
2022-09-25T10:15:45.971Z,26.42
2022-09-25T10:18:15.614Z,25.98
2022-09-25T10:20:48.671Z,26.23
2022-09-25T10:23:32.739Z,25.10
2022-09-25T10:26:01.033Z,24.55
2022-09-25T10:28:34.188Z,25.13
2022-09-25T10:31:03.865Z,24.42
2022-09-25T10:33:33.273Z,25.38
2022-09-25T10:36:01.483Z,25.60
2022-09-25T10:38:35.367Z,24.17
2022-09-25T10:41:07.457Z,27.55
2022-09-25T10:43:50.567Z,24.10
2022-09-25T10:46:48.796Z,23.75
2022-09-25T10:49:38.095Z,22.63
2022-09-25T10:52:08.190Z,24.83
2022-09-25T10:54:41.852Z,23.58
2022-09-25T10:57:33.893Z,22.52
2022-09-25T11:00:06.176Z,24.02
2022-09-25T11:02:39.014Z,22.40
2022-09-25T11:05:09.137Z,22.10
2022-09-25T11:07:36.918Z,21.55
2022-09-25T11:10:05.554Z,22.63
2022-09-25T11:12:33.550Z,21.30
2022-09-25T11:15:06.197Z,22.13
2022-09-25T11:17:39.398Z,23.33
2022-09-25T11:20:27.716Z,21.50
2022-09-25T11:23:04.676Z,19.55
2022-09-25T11:25:37.663Z,18.05
2022-09-25T11:28:13.659Z,19.88
2022-09-25T11:30:58.273Z,20.00
2022-09-25T11:33:42.199Z,18.17
2022-09-25T11:36:16.803Z,17.65
2022-09-25T11:39:05.441Z,17.70
2022-09-25T11:41:38.624Z,18.58
2022-09-25T11:44:19.861Z,17.15
2022-09-25T11:46:59.837Z,17.58
2022-09-25T11:49:31.312Z,18.02
2022-09-25T11:52:37.206Z,17.10
2022-09-25T11:55:45.737Z,18.98
2022-09-25T11:58:39.161Z,19.00
2022-09-25T12:01:16.787Z,17.30
2022-09-25T12:04:07.557Z,16.05
2022-09-25T12:06:55.084Z,17.88
2022-09-25T12:09:54.570Z,16.63
2022-09-25T12:12:31.431Z,17.05
2022-09-25T12:15:09.116Z,18.80
2022-09-25T12:17:44.296Z,16.88
2022-09-25T12:20:21.743Z,17.30
2022-09-25T12:23:01.768Z,18.65
2022-09-25T12:25:47.890Z,17.35
2022-09-25T12:28:27.683Z,18.08
2022-09-25T12:31:06.034Z,17.88
2022-09-25T12:33:42.023Z,16.08
2022-09-25T12:36:17.676Z,18.00
2022-09-25T12:38:55.385Z,19.33
2022-09-25T12:41:29.821Z,16.25
2022-09-25T12:44:05.066Z,15.07
2022-09-25T12:46:41.917Z,14.98
2022-09-25T12:49:14.701Z,14.63
2022-09-25T12:51:47.303Z,12.85
2022-09-25T12:54:25.266Z,11.52
2022-09-25T12:56:57.962Z,12.30
2022-09-25T12:59:31.826Z,10.77
2022-09-25T13:02:07.214Z,11.68
2022-09-25T13:04:47.185Z,11.73
2022-09-25T13:07:23.383Z,10.20
2022-09-25T13:09:51.288Z,9.82
2022-09-25T13:12:33.163Z,7.43
2022-09-25T13:15:06.788Z,6.72
2022-09-25T13:17:35.382Z,6.45
2022-09-25T13:20:42.173Z,4.35
2022-09-25T13:23:14.978Z,5.65
2022-09-25T13:25:46.414Z,8.13
2022-09-25T13:28:21.300Z,6.85
2022-09-25T13:31:08.956Z,6.55
2022-09-25T13:33:47.090Z,4.72
2022-09-25T13:36:31.836Z,4.75
2022-09-25T13:39:22.335Z,4.18
2022-09-25T13:41:56.891Z,4.97
2022-09-25T13:44:50.834Z,4.63
2022-09-25T13:47:51.367Z,6.90
2022-09-25T13:50:28.051Z,5.10
2022-09-25T13:53:34.946Z,6.63
2022-09-25T13:56:23.783Z,4.28
2022-09-25T13:59:23.301Z,5.68
2022-09-25T14:01:54.942Z,4.30
2022-09-25T14:04:35.828Z,5.05
2022-09-25T14:07:19.531Z,4.57
2022-09-25T14:09:51.421Z,5.30
2022-09-25T14:12:29.928Z,6.35
2022-09-25T14:15:01.858Z,6.55
2022-09-25T14:17:32.444Z,8.98
2022-09-25T14:20:04.415Z,4.93
2022-09-25T14:22:39.242Z,5.18
2022-09-25T14:25:27.368Z,4.10
2022-09-25T14:27:56.860Z,4.45
2022-09-25T14:30:29.031Z,5.57
2022-09-25T14:33:23.083Z,3.55
2022-09-25T14:36:01.713Z,4.72
2022-09-25T14:39:03.700Z,4.00
2022-09-25T14:41:57.510Z,7.18
2022-09-25T14:45:16.632Z,4.80
2022-09-25T14:47:47.428Z,2.70
2022-09-25T14:50:21.646Z,2.40
2022-09-25T14:52:50.452Z,2.40
2022-09-25T14:55:22.382Z,3.50
2022-09-25T14:57:51.871Z,4.07
2022-09-25T15:00:24.484Z,6.82
2022-09-25T15:02:56.220Z,2.25
2022-09-25T15:05:32.817Z,3.28
2022-09-25T15:08:02.655Z,4.18
2022-09-25T15:10:33.632Z,3.28
2022-09-25T15:13:15.859Z,3.80
2022-09-25T15:16:02.328Z,5.53
2022-09-25T15:18:31.280Z,5.07
2022-09-25T15:21:01.433Z,4.80
2022-09-25T15:23:37.329Z,3.72
2022-09-25T15:26:05.569Z,6.85
2022-09-25T15:28:40.146Z,5.18
2022-09-25T15:31:09.504Z,5.68
2022-09-25T15:33:39.203Z,4.75
2022-09-25T15:36:16.659Z,3.22
2022-09-25T15:38:54.907Z,3.20
2022-09-25T15:41:24.411Z,3.80
2022-09-25T15:43:53.427Z,7.25
2022-09-25T15:46:37.858Z,3.38
2022-09-25T15:49:07.224Z,3.58
2022-09-25T15:51:37.148Z,4.13
2022-09-25T15:54:25.768Z,3.45
2022-09-25T15:56:57.228Z,5.50
2022-09-25T15:59:28.463Z,5.63
2022-09-25T16:02:15.298Z,5.63
2022-09-25T16:04:50.365Z,5.38
2022-09-25T16:07:27.158Z,4.57
2022-09-25T16:09:57.081Z,7.03
2022-09-25T16:12:30.945Z,4.97
2022-09-25T16:14:59.665Z,7.05
2022-09-25T16:17:34.594Z,8.30
2022-09-25T16:20:06.039Z,5.18
2022-09-25T16:22:40.997Z,7.60
2022-09-25T16:25:22.154Z,6.20
2022-09-25T16:27:50.579Z,8.57
2022-09-25T16:30:20.669Z,7.40
2022-09-25T16:32:53.762Z,9.15
2022-09-25T16:35:26.000Z,9.05
2022-09-25T16:37:55.018Z,9.70
2022-09-25T16:40:29.118Z,8.90
2022-09-25T16:42:58.855Z,6.45
2022-09-25T16:45:34.076Z,6.85
2022-09-25T16:48:29.041Z,9.43
2022-09-25T16:50:59.879Z,7.13
2022-09-25T16:53:28.495Z,8.73
2022-09-25T16:55:57.879Z,15.95
2022-09-25T16:58:51.187Z,9.90
2022-09-25T17:01:19.552Z,5.97
2022-09-25T17:03:52.765Z,5.45
2022-09-25T17:06:21.947Z,6.28
2022-09-25T17:08:50.387Z,7.03
2022-09-25T17:11:25.242Z,7.93
2022-09-25T17:14:00.064Z,7.03
2022-09-25T17:16:27.876Z,6.10
2022-09-25T17:19:06.490Z,7.95
2022-09-25T17:21:34.466Z,7.40
2022-09-25T17:24:02.759Z,5.32
2022-09-25T17:26:31.682Z,5.15
2022-09-25T17:28:59.863Z,11.13
2022-09-25T17:31:28.437Z,7.53
2022-09-25T17:33:57.632Z,7.90
2022-09-25T17:36:25.310Z,8.10
2022-09-25T17:38:53.247Z,8.23
2022-09-25T17:41:26.668Z,7.60
2022-09-25T17:43:54.463Z,8.20
2022-09-25T17:46:23.303Z,7.13
2022-09-25T17:48:54.502Z,5.65
2022-09-25T17:51:25.846Z,7.85
2022-09-25T17:53:53.860Z,10.90
2022-09-25T17:56:21.803Z,9.23
2022-09-25T17:58:49.574Z,6.25
2022-09-25T18:01:21.860Z,7.22
2022-09-25T18:03:50.098Z,8.10
2022-09-25T18:06:19.202Z,5.97
2022-09-25T18:08:48.807Z,6.07
2022-09-25T18:11:17.276Z,4.15
2022-09-25T18:13:45.300Z,3.20
2022-09-25T18:16:16.762Z,7.63
2022-09-25T18:19:02.899Z,5.72
2022-09-25T18:21:48.264Z,8.85
2022-09-25T18:24:17.779Z,9.00
2022-09-25T18:26:46.647Z,7.65
2022-09-25T18:29:16.804Z,6.55
2022-09-25T18:31:45.378Z,5.05
2022-09-25T18:34:13.366Z,7.15
2022-09-25T18:36:41.332Z,9.77
2022-09-25T18:39:09.631Z,6.22
2022-09-25T18:41:39.594Z,6.72
2022-09-25T18:44:07.975Z,5.18
2022-09-25T18:46:37.353Z,6.45
2022-09-25T18:49:18.965Z,5.13
2022-09-25T18:51:49.508Z,10.48
2022-09-25T18:54:17.739Z,8.55
2022-09-25T18:56:46.939Z,7.28
2022-09-25T18:59:15.282Z,7.18
2022-09-25T19:01:43.963Z,8.45
2022-09-25T19:04:16.895Z,7.47
2022-09-25T19:06:44.667Z,8.95
2022-09-25T19:09:16.405Z,6.05
2022-09-25T19:11:46.746Z,5.43
2022-09-25T19:14:16.465Z,8.25
2022-09-25T19:16:44.628Z,9.63
2022-09-25T19:19:12.636Z,6.85
2022-09-25T19:21:41.727Z,4.63
2022-09-25T19:24:09.612Z,7.00
2022-09-25T19:26:37.842Z,6.13
2022-09-25T19:29:07.190Z,9.23
2022-09-25T19:31:35.133Z,6.18
2022-09-25T19:34:03.133Z,12.07
2022-09-25T19:36:32.739Z,10.02
2022-09-25T19:39:02.362Z,9.68
2022-09-25T19:41:32.184Z,6.43
2022-09-25T19:44:08.153Z,7.68
2022-09-25T19:46:42.044Z,7.38
2022-09-25T19:49:10.088Z,6.55
2022-09-25T19:51:38.627Z,6.05
2022-09-25T19:54:07.407Z,8.05
2022-09-25T19:56:40.451Z,7.57
2022-09-25T19:59:08.786Z,6.72
2022-09-25T20:01:36.756Z,8.70
2022-09-25T20:04:08.446Z,6.50
2022-09-25T20:06:37.640Z,8.52
2022-09-25T20:09:06.037Z,9.07
2022-09-25T20:11:35.584Z,7.93
2022-09-25T20:14:05.984Z,6.80
2022-09-25T20:16:37.299Z,6.50
2022-09-25T20:19:08.048Z,5.13
2022-09-25T20:21:37.840Z,5.85
2022-09-25T20:24:07.985Z,9.85
2022-09-25T20:26:36.863Z,9.18
2022-09-25T20:29:09.564Z,8.70
2022-09-25T20:31:39.210Z,6.82
2022-09-25T20:34:08.657Z,5.38
2022-09-25T20:36:39.034Z,8.75
2022-09-25T20:39:07.582Z,8.20
2022-09-25T20:41:35.726Z,9.07
2022-09-25T20:44:04.080Z,9.90
2022-09-25T20:46:33.379Z,6.75
2022-09-25T20:49:01.943Z,7.32
2022-09-25T20:51:34.801Z,7.57
2022-09-25T20:54:04.722Z,8.40
2022-09-25T20:56:33.897Z,7.40
2022-09-25T20:59:02.951Z,8.68
2022-09-25T21:01:34.632Z,8.95
2022-09-25T21:04:04.029Z,7.30
2022-09-25T21:06:35.250Z,9.63
2022-09-25T21:09:06.125Z,6.28
2022-09-25T21:11:34.616Z,8.90
2022-09-25T21:14:03.912Z,7.95
2022-09-25T21:16:33.938Z,9.95
2022-09-25T21:19:04.708Z,7.00
2022-09-25T21:21:34.755Z,6.68
2022-09-25T21:24:03.255Z,9.65
2022-09-25T21:26:32.761Z,5.05
2022-09-25T21:29:02.069Z,10.50
2022-09-25T21:31:32.467Z,8.63
2022-09-25T21:34:00.906Z,8.30
2022-09-25T21:36:29.975Z,6.97
2022-09-25T21:39:00.945Z,8.00
2022-09-25T21:41:30.726Z,9.02
2022-09-25T21:44:00.104Z,5.88
2022-09-25T21:46:29.197Z,8.40
2022-09-25T21:48:59.204Z,7.75
2022-09-25T21:51:30.029Z,7.35
2022-09-25T21:54:00.931Z,12.07
2022-09-25T21:56:31.446Z,10.63
2022-09-25T21:59:08.386Z,8.32
2022-09-25T22:01:39.357Z,9.27
2022-09-25T22:04:08.937Z,10.65
2022-09-25T22:06:39.690Z,8.43
2022-09-25T22:09:10.898Z,10.05
2022-09-25T22:11:39.510Z,9.95
2022-09-25T22:14:13.274Z,8.70
2022-09-25T22:16:44.387Z,9.32
2022-09-25T22:19:14.366Z,8.48
2022-09-25T22:21:43.802Z,9.00
2022-09-25T22:24:12.968Z,8.88
2022-09-25T22:26:43.010Z,7.22
2022-09-25T22:29:11.764Z,7.03
2022-09-25T22:31:42.868Z,10.02
2022-09-25T22:34:17.811Z,8.35
2022-09-25T22:36:46.234Z,9.65
2022-09-25T22:39:17.330Z,6.68
2022-09-25T22:41:45.475Z,7.18
2022-09-25T22:44:13.230Z,9.02
2022-09-25T22:46:41.635Z,7.32
2022-09-25T22:49:09.418Z,11.57
2022-09-25T22:51:37.247Z,7.40
2022-09-25T22:54:05.338Z,8.38
2022-09-25T22:56:35.641Z,6.93
2022-09-25T22:59:06.090Z,9.57
2022-09-25T23:01:37.739Z,7.68
2022-09-25T23:04:07.809Z,9.25
2022-09-25T23:06:36.847Z,6.00
2022-09-25T23:09:06.965Z,8.80
2022-09-25T23:11:36.410Z,8.82
2022-09-25T23:14:07.051Z,8.95
2022-09-25T23:16:35.952Z,8.55
2022-09-25T23:19:04.664Z,8.18
2022-09-25T23:21:33.155Z,8.55
2022-09-25T23:24:03.583Z,10.68
2022-09-25T23:26:31.595Z,10.32
2022-09-25T23:29:01.969Z,14.00
2022-09-25T23:31:31.023Z,9.85
2022-09-25T23:33:59.652Z,7.80
2022-09-25T23:36:28.365Z,6.93
2022-09-25T23:38:58.978Z,9.15
2022-09-25T23:41:29.017Z,8.35
2022-09-25T23:43:57.606Z,8.52
2022-09-25T23:46:28.575Z,10.90
2022-09-25T23:48:57.142Z,9.50
2022-09-25T23:51:26.110Z,9.43
2022-09-25T23:53:55.074Z,7.32
2022-09-25T23:56:26.045Z,8.40
2022-09-25T23:58:54.488Z,9.38
